Time;durP1;ratioP1;P1;durP2;ratioP2;P2;SDS_P1;SDS_P2;PMS_P1;PMS_P2;Temp;Humidity;BMP_temperature;BMP_pressure;BME280_temperature;BME280_humidity;BME280_pressure;Samples;Min_cycle;Max_cycle;Signal;HPM_P1;HPM_P2
2022/10/16 00:00:15;;;;;;;14.48;5.78;;;;;;;18.52;48.36;99092.16;4455026;32;20116;-79
2022/10/16 00:02:41;;;;;;;13.57;5.87;;;;;;;18.51;48.47;99091.31;4463527;32;20125;-79
2022/10/16 00:05:06;;;;;;;12.15;5.62;;;;;;;18.44;48.56;99087.44;4458516;32;20080;-79
2022/10/16 00:07:32;;;;;;;15.85;6.00;;;;;;;18.32;48.78;99083.12;4459798;32;20142;-80
2022/10/16 00:09:57;;;;;;;13.77;6.30;;;;;;;18.37;48.58;99089.78;4463405;32;20167;-79
2022/10/16 00:12:22;;;;;;;11.20;5.45;;;;;;;18.09;49.08;99083.16;4457161;32;20126;-79
2022/10/16 00:14:48;;;;;;;16.50;5.70;;;;;;;18.24;48.75;99076.59;4462590;32;20124;-79
2022/10/16 00:17:13;;;;;;;16.98;5.95;;;;;;;18.31;48.65;99076.97;4458833;32;20146;-79
2022/10/16 00:19:38;;;;;;;14.05;5.50;;;;;;;18.23;48.84;99071.37;4459188;32;20097;-80
2022/10/16 00:22:04;;;;;;;13.25;5.65;;;;;;;18.34;48.61;99078.50;4465304;32;20104;-78
2022/10/16 00:24:29;;;;;;;14.80;6.07;;;;;;;18.42;48.38;99084.06;4454246;32;20111;-79
2022/10/16 00:26:55;;;;;;;11.77;5.20;;;;;;;18.33;48.54;99084.81;4464429;32;20105;-79
2022/10/16 00:29:20;;;;;;;15.45;5.95;;;;;;;18.32;48.63;99091.97;4453632;32;20137;-79
2022/10/16 00:31:46;;;;;;;19.45;6.35;;;;;;;18.31;48.63;99092.97;4455533;32;20101;-80
2022/10/16 00:34:11;;;;;;;13.82;5.90;;;;;;;18.37;48.50;99092.44;4452790;32;20387;-80
2022/10/16 00:36:36;;;;;;;12.27;5.32;;;;;;;18.32;48.76;99096.47;4465952;32;20849;-80
2022/10/16 00:39:02;;;;;;;14.98;5.80;;;;;;;18.02;49.61;99095.28;4458342;32;20115;-80
2022/10/16 00:41:30;;;;;;;12.15;5.72;;;;;;;18.18;49.03;99098.44;4463192;32;20096;-79
2022/10/16 00:44:04;;;;;;;14.77;5.82;;;;;;;18.28;48.68;99101.19;4467367;32;20122;-80
2022/10/16 00:46:39;;;;;;;13.07;5.40;;;;;;;18.24;48.52;99103.25;4464225;32;20104;-80
2022/10/16 00:49:17;;;;;;;12.43;5.90;;;;;;;18.24;48.48;99103.25;4461297;32;20248;-79
2022/10/16 00:51:46;;;;;;;12.85;5.10;;;;;;;18.24;48.43;99107.75;4448926;32;20113;-80
2022/10/16 00:54:18;;;;;;;14.55;5.80;;;;;;;18.20;48.55;99093.81;4454990;32;21430;-80
2022/10/16 00:56:44;;;;;;;14.38;5.62;;;;;;;18.21;48.85;99106.16;4453105;32;20416;-80
2022/10/16 00:59:18;;;;;;;13.95;5.72;;;;;;;18.24;48.80;99116.59;4452784;32;20123;-79
2022/10/16 01:01:43;;;;;;;12.93;5.20;;;;;;;18.24;48.88;99115.75;4459348;32;20469;-80
2022/10/16 01:04:09;;;;;;;13.20;5.57;;;;;;;18.27;48.71;99121.69;4466388;32;20088;-80
2022/10/16 01:06:43;;;;;;;13.32;5.60;;;;;;;18.19;48.99;99124.09;4459167;32;20156;-80
2022/10/16 01:09:21;;;;;;;13.25;5.55;;;;;;;18.11;49.00;99123.06;4467313;32;20132;-80
2022/10/16 01:12:11;;;;;;;13.18;5.95;;;;;;;18.12;48.89;99119.41;4457176;32;20100;-80
2022/10/16 01:14:40;;;;;;;11.93;5.35;;;;;;;18.17;48.58;99122.56;4466411;32;20108;-80
2022/10/16 01:17:18;;;;;;;12.88;5.43;;;;;;;18.00;48.80;99122.09;4458718;32;20156;-81
2022/10/16 01:19:50;;;;;;;13.60;5.93;;;;;;;18.02;48.59;99120.16;4456360;32;20105;-81
2022/10/16 01:22:16;;;;;;;13.93;5.57;;;;;;;17.98;48.81;99124.03;4464204;32;20108;-81
2022/10/16 01:24:48;;;;;;;14.07;5.53;;;;;;;17.86;48.96;99127.66;4455423;32;20127;-80
2022/10/16 01:27:25;;;;;;;14.07;5.60;;;;;;;17.83;48.88;99127.91;4458854;32;20452;-81
2022/10/16 01:30:25;;;;;;;12.80;5.57;;;;;;;17.66;49.38;99130.06;4450170;32;20101;-81
2022/10/16 01:32:52;;;;;;;;;;;;;;;17.76;48.78;99126.69;4455802;32;20100;-80
2022/10/16 01:35:31;;;;;;;12.13;4.85;;;;;;;17.37;49.33;99127.00;4460513;32;19985;-80
2022/10/16 01:38:06;;;;;;;11.95;5.20;;;;;;;17.23;49.62;99129.88;4463777;32;20135;-80
2022/10/16 01:40:34;;;;;;;11.90;5.50;;;;;;;17.26;49.33;99127.81;4455261;32;20101;-81
2022/10/16 01:43:03;;;;;;;11.70;5.10;;;;;;;17.34;49.05;99127.22;4461177;32;20100;-80
2022/10/16 01:45:30;;;;;;;12.88;5.60;;;;;;;16.89;50.18;99127.13;4460415;32;20120;-80
2022/10/16 01:47:56;;;;;;;13.20;5.50;;;;;;;17.18;49.40;99126.72;4442966;32;20149;-79
2022/10/16 01:50:23;;;;;;;13.27;5.07;;;;;;;17.06;49.61;99134.69;4464741;32;20101;-80
2022/10/16 01:52:51;;;;;;;12.77;5.47;;;;;;;16.68;50.40;99135.69;4457405;32;20109;-81
2022/10/16 01:55:18;;;;;;;;;;;;;;;16.98;49.72;99144.19;4461268;32;20127;-81
2022/10/16 01:57:46;;;;;;;12.13;5.25;;;;;;;17.04;49.45;99146.41;4448621;32;19976;-81
2022/10/16 02:00:12;;;;;;;;;;;;;;;16.60;50.60;99156.69;4454634;32;20073;-81
2022/10/16 02:02:39;;;;;;;13.52;5.78;;;;;;;16.72;50.26;99157.59;4464004;32;20800;-80
2022/10/16 02:05:09;;;;;;;12.07;5.62;;;;;;;16.67;50.31;99159.78;4458701;32;20095;-80
2022/10/16 02:07:35;;;;;;;16.62;6.00;;;;;;;16.41;51.07;99172.31;4458776;32;20093;-80
2022/10/16 02:10:00;;;;;;;16.70;5.28;;;;;;;16.52;50.70;99164.41;4464097;32;20137;-80
2022/10/16 02:12:34;;;;;;;13.15;5.43;;;;;;;16.61;50.42;99161.06;4455078;32;20449;-80
2022/10/16 02:15:00;;;;;;;14.95;5.45;;;;;;;16.61;50.35;99163.72;4463747;32;20093;-81
2022/10/16 02:17:26;;;;;;;13.77;5.37;;;;;;;16.57;50.46;99167.56;4447089;32;20474;-80
2022/10/16 02:19:54;;;;;;;13.35;5.60;;;;;;;16.67;50.24;99162.44;4454824;32;20085;-81
2022/10/16 02:22:34;;;;;;;14.55;5.50;;;;;;;16.67;50.12;99157.97;4464706;32;20449;-80
2022/10/16 02:25:02;;;;;;;12.18;5.37;;;;;;;16.54;50.47;99159.81;4456711;32;20093;-81
2022/10/16 02:27:34;;;;;;;13.68;5.28;;;;;;;16.52;50.57;99154.59;4459504;32;20085;-80
2022/10/16 02:30:29;;;;;;;13.40;5.87;;;;;;;16.59;50.45;99159.47;4461671;32;20170;-79
2022/10/16 02:32:55;;;;;;;13.70;6.07;;;;;;;16.61;50.33;99160.19;4454103;32;20634;-79
2022/10/16 02:35:22;;;;;;;12.40;5.57;;;;;;;16.55;50.37;99158.84;4446165;32;20173;-80
2022/10/16 02:37:49;;;;;;;14.00;6.00;;;;;;;16.46;50.51;99167.50;4447099;32;20172;-80
2022/10/16 02:40:15;;;;;;;12.98;5.60;;;;;;;16.52;50.37;99178.53;4439493;32;20108;-80
2022/10/16 02:42:41;;;;;;;12.93;5.50;;;;;;;16.58;50.34;99171.09;4450601;32;20117;-80
2022/10/16 02:45:08;;;;;;;13.62;5.43;;;;;;;16.52;50.39;99175.03;4455226;32;20444;-80
2022/10/16 02:47:34;;;;;;;12.90;5.82;;;;;;;16.46;50.49;99168.34;4443453;32;20203;-80
2022/10/16 02:49:59;;;;;;;12.88;5.25;;;;;;;16.50;50.36;99171.66;4461199;32;20444;-81
2022/10/16 02:52:25;;;;;;;15.05;6.12;;;;;;;16.50;50.28;99174.31;4452515;32;20128;-80
2022/10/16 02:54:51;;;;;;;14.10;5.90;;;;;;;16.48;50.37;99174.41;4448446;32;20135;-79
2022/10/16 02:57:16;;;;;;;13.35;5.62;;;;;;;16.49;50.31;99175.25;4458288;32;20093;-81
2022/10/16 02:59:42;;;;;;;11.77;5.32;;;;;;;16.48;50.22;99176.22;4443968;32;20117;-80
2022/10/16 03:02:07;;;;;;;12.98;5.32;;;;;;;16.28;50.52;99182.97;4449316;32;20253;-80
2022/10/16 03:04:33;;;;;;;13.93;5.68;;;;;;;16.31;50.25;99180.94;4465167;32;20160;-81
2022/10/16 03:06:58;;;;;;;13.18;5.85;;;;;;;16.41;50.06;99180.28;4457794;32;20495;-80
2022/10/16 03:09:23;;;;;;;13.10;5.85;;;;;;;16.43;50.01;99181.88;4460773;32;20125;-80
2022/10/16 03:11:49;;;;;;;14.02;5.25;;;;;;;16.43;50.01;99179.19;4454569;32;20125;-80
2022/10/16 03:14:14;;;;;;;15.43;6.05;;;;;;;16.41;50.08;99182.94;4466512;32;20105;-79
2022/10/16 03:16:39;;;;;;;15.95;6.05;;;;;;;16.36;50.29;99182.41;4456712;32;20151;-79
2022/10/16 03:19:05;;;;;;;16.50;6.28;;;;;;;16.35;50.34;99191.38;4464630;32;20100;-79
2022/10/16 03:21:30;;;;;;;12.82;5.57;;;;;;;16.32;50.39;99195.06;4462652;32;20160;-79
2022/10/16 03:23:55;;;;;;;12.70;5.20;;;;;;;16.33;50.41;99191.47;4458856;32;20101;-81
2022/10/16 03:26:21;;;;;;;12.68;5.70;;;;;;;16.21;50.61;99193.22;4465747;32;20096;-80
2022/10/16 03:28:46;;;;;;;13.77;5.37;;;;;;;16.25;50.53;99205.31;4456091;32;20166;-79
2022/10/16 03:31:12;;;;;;;13.07;5.55;;;;;;;15.67;52.24;99212.03;4462067;32;20125;-81
2022/10/16 03:33:37;;;;;;;14.02;5.85;;;;;;;16.00;51.28;99210.69;4462233;32;20124;-82
2022/10/16 03:36:03;;;;;;;14.65;5.60;;;;;;;16.07;51.02;99212.78;4458423;32;20140;-81
2022/10/16 03:38:28;;;;;;;12.93;5.62;;;;;;;16.09;50.96;99218.00;4465743;32;20107;-79
2022/10/16 03:40:54;;;;;;;13.93;5.80;;;;;;;16.01;51.12;99213.22;4457609;32;20148;-81
2022/10/16 03:43:19;;;;;;;15.13;5.85;;;;;;;16.03;51.11;99221.06;4461192;32;20113;-80
2022/10/16 03:45:45;;;;;;;12.37;5.35;;;;;;;16.02;51.07;99222.87;4462263;32;20177;-81
2022/10/16 03:48:10;;;;;;;13.98;5.90;;;;;;;15.96;51.18;99230.44;4457070;32;20132;-82
2022/10/16 03:50:36;;;;;;;13.35;5.47;;;;;;;15.97;51.29;99226.81;4465077;32;20105;-82
2022/10/16 03:53:01;;;;;;;12.93;5.62;;;;;;;16.01;51.29;99221.22;4459855;32;20424;-80
2022/10/16 03:55:26;;;;;;;11.75;5.53;;;;;;;16.04;51.35;99217.47;4460472;32;20117;-80
2022/10/16 03:57:52;;;;;;;13.45;5.70;;;;;;;16.02;51.44;99214.06;4450979;32;20093;-80
2022/10/16 04:00:17;;;;;;;14.13;5.75;;;;;;;16.04;51.20;99218.31;4456916;32;20089;-81
2022/10/16 04:02:43;;;;;;;14.43;5.40;;;;;;;15.98;51.19;99226.72;4464929;32;20436;-81
2022/10/16 04:05:08;;;;;;;12.77;5.30;;;;;;;15.98;51.13;99224.06;4458909;32;20365;-81
2022/10/16 04:07:34;;;;;;;12.48;5.05;;;;;;;15.99;51.17;99222.25;4459692;32;20108;-80
2022/10/16 04:09:59;;;;;;;13.02;5.00;;;;;;;15.96;51.22;99223.31;4464323;32;20108;-80
2022/10/16 04:12:26;;;;;;;13.02;5.32;;;;;;;15.97;51.20;99235.62;4456161;32;20268;-80
2022/10/16 04:14:51;;;;;;;12.55;5.43;;;;;;;15.93;51.28;99228.84;4465674;32;20161;-79
2022/10/16 04:17:17;;;;;;;13.07;5.18;;;;;;;15.85;51.42;99233.84;4461114;32;20073;-79
2022/10/16 04:19:42;;;;;;;14.38;5.90;;;;;;;15.84;51.41;99238.31;4459185;32;20169;-79
2022/10/16 04:22:07;;;;;;;13.82;5.43;;;;;;;15.85;51.41;99234.69;4466026;32;20330;-79
2022/10/16 04:24:33;;;;;;;13.23;5.78;;;;;;;15.87;51.41;99235.44;4456328;32;20128;-78
2022/10/16 04:26:58;;;;;;;14.90;6.07;;;;;;;15.87;51.44;99235.44;4462745;32;20159;-80
2022/10/16 04:29:24;;;;;;;18.27;5.78;;;;;;;15.80;51.59;99226.19;4460812;32;20092;-80
2022/10/16 04:31:49;;;;;;;14.13;5.22;;;;;;;15.77;51.68;99230.87;4459320;32;20127;-81
2022/10/16 04:34:15;;;;;;;13.23;5.93;;;;;;;15.64;51.71;99230.81;4466492;32;20100;-80
2022/10/16 04:36:40;;;;;;;13.62;5.55;;;;;;;15.66;51.65;99236.88;4457347;32;20076;-81
2022/10/16 04:39:05;;;;;;;14.77;5.57;;;;;;;15.67;51.61;99234.13;4463077;32;20081;-80
2022/10/16 04:41:31;;;;;;;12.68;5.68;;;;;;;15.69;51.50;99239.34;4460579;32;20096;-80
2022/10/16 04:43:56;;;;;;;12.80;5.53;;;;;;;15.69;51.43;99240.19;4457575;32;20405;-79
2022/10/16 04:46:21;;;;;;;12.50;5.60;;;;;;;15.63;51.46;99229.13;4465842;32;20100;-81
2022/10/16 04:48:47;;;;;;;13.40;6.40;;;;;;;15.54;51.58;99242.06;4457898;32;20483;-80
2022/10/16 04:51:12;;;;;;;17.67;5.78;;;;;;;15.57;51.54;99240.16;4463054;32;20136;-79
2022/10/16 04:53:38;;;;;;;12.80;6.00;;;;;;;15.64;51.51;99239.63;4463696;32;20146;-80
2022/10/16 04:56:03;;;;;;;15.18;5.85;;;;;;;15.67;51.51;99251.88;4457942;32;20081;-81
2022/10/16 04:58:29;;;;;;;14.20;6.05;;;;;;;15.68;51.44;99253.56;4466438;32;20454;-79
2022/10/16 05:00:54;;;;;;;13.13;5.93;;;;;;;15.50;51.74;99260.97;4457281;32;20097;-80
2022/10/16 05:03:19;;;;;;;12.45;5.45;;;;;;;15.37;52.05;99260.09;4460527;32;20105;-80
2022/10/16 05:05:46;;;;;;;13.75;5.90;;;;;;;15.49;51.75;99251.28;4460072;32;20492;-79
2022/10/16 05:08:15;;;;;;;13.52;5.95;;;;;;;15.59;51.57;99252.41;4455417;32;20460;-81
2022/10/16 05:10:44;;;;;;;13.60;5.70;;;;;;;15.52;51.91;99251.94;4467798;32;20630;-80
2022/10/16 05:13:10;;;;;;;15.20;5.68;;;;;;;15.57;51.72;99250.78;4461725;32;20111;-79
2022/10/16 05:15:35;;;;;;;15.45;5.65;;;;;;;15.53;51.72;99256.31;4461768;32;20093;-81
2022/10/16 05:18:01;;;;;;;15.43;6.32;;;;;;;15.57;51.60;99254.31;4457436;32;20097;-80
2022/10/16 05:20:27;;;;;;;13.48;5.65;;;;;;;15.63;51.62;99268.97;4466119;32;20118;-80
2022/10/16 05:22:52;;;;;;;14.65;5.95;;;;;;;15.65;51.56;99257.28;4457331;32;20088;-80
2022/10/16 05:25:18;;;;;;;13.85;5.65;;;;;;;15.69;51.54;99260.59;4461007;32;20149;-81
2022/10/16 05:27:46;;;;;;;15.02;6.57;;;;;;;15.74;51.44;99269.09;4460909;32;20177;-81
2022/10/16 05:30:12;;;;;;;13.55;5.80;;;;;;;15.77;51.46;99268.91;4455281;32;20484;-81
2022/10/16 05:32:37;;;;;;;15.13;5.78;;;;;;;15.85;51.51;99277.19;4466991;32;20131;-80
2022/10/16 05:35:03;;;;;;;13.70;6.10;;;;;;;15.75;51.58;99280.59;4457999;32;20137;-82
2022/10/16 05:37:28;;;;;;;12.50;5.80;;;;;;;15.87;51.60;99279.75;4466297;32;20383;-80
2022/10/16 05:39:54;;;;;;;14.60;5.93;;;;;;;15.94;51.56;99282.84;4455522;32;20089;-82
2022/10/16 05:42:19;;;;;;;13.68;6.10;;;;;;;16.00;51.55;99271.78;4455787;32;20473;-82
2022/10/16 05:44:44;;;;;;;14.95;6.15;;;;;;;15.99;51.79;99281.56;4455792;32;20089;-82
2022/10/16 05:47:10;;;;;;;15.00;6.05;;;;;;;16.09;51.50;99276.47;4453078;32;20113;-80
2022/10/16 05:49:36;;;;;;;13.32;6.05;;;;;;;16.11;51.47;99279.88;4454141;32;20124;-81
2022/10/16 05:52:01;;;;;;;14.45;6.00;;;;;;;16.18;51.21;99277.63;4456053;32;20093;-81
2022/10/16 05:54:27;;;;;;;13.77;6.00;;;;;;;16.26;50.91;99277.94;4455975;32;20383;-82
2022/10/16 05:56:52;;;;;;;16.15;6.15;;;;;;;16.31;50.86;99274.00;4456300;32;20104;-80
2022/10/16 05:59:18;;;;;;;16.50;6.85;;;;;;;16.36;50.35;99276.34;4471465;32;20111;-81
2022/10/16 06:01:43;;;;;;;13.27;5.80;;;;;;;16.44;50.02;99283.78;4470149;32;20096;-81
2022/10/16 06:04:09;;;;;;;13.88;6.40;;;;;;;16.52;49.94;99289.41;4471563;32;20112;-81
2022/10/16 06:06:36;;;;;;;12.93;6.12;;;;;;;16.58;49.48;99290.78;4470150;32;20164;-81
2022/10/16 06:09:02;;;;;;;13.07;6.45;;;;;;;16.62;49.46;99303.72;4471460;32;20147;-82
2022/10/16 06:11:29;;;;;;;16.02;6.32;;;;;;;16.54;49.08;99300.78;4469946;32;20107;-81
2022/10/16 06:13:56;;;;;;;15.02;6.05;;;;;;;16.68;48.97;99303.28;4471046;32;20168;-82
2022/10/16 06:16:23;;;;;;;15.15;6.45;;;;;;;16.78;48.65;99310.62;4471074;32;20097;-82
2022/10/16 06:18:50;;;;;;;14.57;6.28;;;;;;;16.76;48.43;99309.88;4471042;32;20123;-82
2022/10/16 06:21:18;;;;;;;14.25;5.95;;;;;;;16.80;48.22;99306.87;4469795;32;20115;-81
2022/10/16 06:23:45;;;;;;;15.43;6.28;;;;;;;16.97;47.86;99310.19;4469850;32;20084;-81
2022/10/16 06:26:14;;;;;;;14.68;7.22;;;;;;;17.04;47.73;99314.09;4469787;32;20109;-81
2022/10/16 06:28:39;;;;;;;12.50;6.28;;;;;;;16.84;48.21;99327.03;4471189;32;20158;-81
2022/10/16 06:31:05;;;;;;;12.90;6.53;;;;;;;16.98;48.08;99327.81;4471124;32;20081;-81
2022/10/16 06:33:31;;;;;;;13.50;6.45;;;;;;;17.05;47.80;99329.09;4471104;32;20084;-81
2022/10/16 06:36:08;;;;;;;15.93;6.75;;;;;;;17.13;47.61;99328.53;4469758;32;20479;-80
2022/10/16 06:38:33;;;;;;;15.88;7.00;;;;;;;17.23;47.46;99334.88;4463413;32;20080;-81
2022/10/16 06:40:59;;;;;;;13.68;6.65;;;;;;;17.32;47.50;99342.19;4453481;32;20659;-79
2022/10/16 06:43:25;;;;;;;15.00;6.22;;;;;;;17.41;47.00;99341.53;4470795;32;20341;-83
2022/10/16 06:45:54;;;;;;;16.60;6.68;;;;;;;17.46;46.50;99342.03;4458603;32;20100;-82
2022/10/16 06:48:20;;;;;;;15.10;6.65;;;;;;;17.53;46.08;99338.91;4453725;32;20112;-82
2022/10/16 06:51:01;;;;;;;16.55;6.55;;;;;;;17.51;46.31;99352.34;4462102;32;20093;-91
2022/10/16 06:53:29;;;;;;;14.60;6.43;;;;;;;17.57;46.27;99337.72;4470614;32;20066;-87
2022/10/16 06:55:55;;;;;;;14.18;6.32;;;;;;;17.60;46.43;99346.34;4470109;32;20138;-83
2022/10/16 06:58:20;;;;;;;17.00;6.82;;;;;;;17.42;47.55;99353.91;4469628;32;20092;-81
2022/10/16 07:00:46;;;;;;;13.50;6.22;;;;;;;17.55;47.42;99355.63;4469278;32;20118;-80
2022/10/16 07:03:12;;;;;;;14.45;6.43;;;;;;;17.71;46.41;99355.34;4469239;32;20111;-80
2022/10/16 07:05:41;;;;;;;14.00;6.32;;;;;;;17.57;46.31;99356.38;4469104;32;20180;-81
2022/10/16 07:08:07;;;;;;;14.25;6.25;;;;;;;17.68;46.21;99361.75;4469283;32;20158;-81
2022/10/16 07:10:33;;;;;;;14.35;6.40;;;;;;;17.79;45.98;99359.13;4469099;32;20375;-81
2022/10/16 07:12:59;;;;;;;16.30;6.25;;;;;;;17.89;45.69;99369.97;4456098;32;20089;-82
2022/10/16 07:15:25;;;;;;;14.52;6.25;;;;;;;17.88;45.69;99369.09;4470210;32;20393;-82
2022/10/16 07:17:51;;;;;;;15.98;6.47;;;;;;;17.86;45.67;99370.19;4468864;32;20159;-80
2022/10/16 07:20:19;;;;;;;14.15;6.35;;;;;;;17.92;45.40;99377.72;4470063;32;20369;-82
2022/10/16 07:22:45;;;;;;;13.52;6.50;;;;;;;17.96;45.48;99378.34;4468855;32;20093;-81
2022/10/16 07:25:11;;;;;;;14.35;6.80;;;;;;;18.01;45.31;99379.69;4469992;32;20467;-80
2022/10/16 07:27:36;;;;;;;15.48;6.43;;;;;;;18.02;45.58;99389.41;4470154;32;20156;-81
2022/10/16 07:30:02;;;;;;;14.73;6.80;;;;;;;18.07;45.69;99389.06;4468948;32;20478;-81
2022/10/16 07:32:27;;;;;;;16.15;6.62;;;;;;;18.11;45.46;99387.84;4469961;32;20383;-81
2022/10/16 07:34:53;;;;;;;14.82;6.43;;;;;;;17.78;46.22;99400.06;4469906;32;20089;-81
2022/10/16 07:37:19;;;;;;;13.80;6.60;;;;;;;18.00;45.57;99401.13;4469727;32;20097;-81
2022/10/16 07:39:44;;;;;;;14.60;6.87;;;;;;;17.85;46.03;99406.69;4455502;32;20109;-82
2022/10/16 07:42:09;;;;;;;13.60;6.22;;;;;;;17.82;45.89;99398.84;4470717;32;20361;-79
2022/10/16 07:44:35;;;;;;;14.93;6.68;;;;;;;18.01;45.93;99402.84;4472071;32;20088;-79
2022/10/16 07:47:00;;;;;;;16.02;7.28;;;;;;;18.10;45.56;99398.63;4471993;32;20150;-80
2022/10/16 07:49:26;;;;;;;16.02;7.43;;;;;;;18.13;45.27;99399.25;4470838;32;20115;-77
2022/10/16 07:51:51;;;;;;;14.20;7.15;;;;;;;18.24;45.19;99404.63;4472056;32;20375;-80
2022/10/16 07:54:17;;;;;;;14.70;7.37;;;;;;;18.24;45.04;99409.94;4472053;32;20508;-84
2022/10/16 07:56:42;;;;;;;17.92;7.35;;;;;;;17.88;46.38;99411.75;4471885;32;20186;-81
2022/10/16 07:59:08;;;;;;;14.00;6.87;;;;;;;18.12;46.22;99415.34;4470880;32;20107;-81
2022/10/16 08:01:33;;;;;;;15.88;7.43;;;;;;;18.16;45.50;99415.03;4470077;32;20081;-81
2022/10/16 08:03:58;;;;;;;17.08;8.05;;;;;;;18.21;45.15;99422.66;4468009;32;20144;-80
2022/10/16 08:06:24;;;;;;;16.52;7.25;;;;;;;18.20;45.04;99416.50;4459991;32;20076;-80
2022/10/16 08:08:49;;;;;;;15.02;7.68;;;;;;;18.23;44.98;99423.41;4471079;32;20146;-82
2022/10/16 08:11:15;;;;;;;15.10;7.03;;;;;;;18.06;45.78;99427.38;4471910;32;20077;-77
2022/10/16 08:13:41;;;;;;;15.23;7.40;;;;;;;18.16;45.37;99425.69;4472004;32;20141;-81
2022/10/16 08:16:08;;;;;;;18.00;7.25;;;;;;;18.02;45.53;99428.53;4457606;32;20126;-83
2022/10/16 08:18:40;;;;;;;15.40;7.45;;;;;;;18.14;45.52;99432.09;4471853;32;20346;-81
2022/10/16 08:21:08;;;;;;;16.27;7.90;;;;;;;18.15;45.33;99434.66;4470671;32;20080;-85
2022/10/16 08:23:33;;;;;;;;;;;;;;;18.10;45.13;99444.81;4471089;32;20120;-88
2022/10/16 08:26:05;;;;;;;15.43;7.28;;;;;;;18.19;45.41;99446.78;4470772;32;20020;-85
2022/10/16 08:28:30;;;;;;;16.25;7.97;;;;;;;18.18;45.33;99449.59;4470658;32;20097;-82
2022/10/16 08:30:56;;;;;;;14.77;7.30;;;;;;;18.19;45.20;99457.44;4470459;32;20089;-82
2022/10/16 08:33:22;;;;;;;14.40;7.12;;;;;;;18.25;44.98;99456.12;4471782;32;20114;-79
2022/10/16 08:35:54;;;;;;;16.27;7.25;;;;;;;17.82;46.53;99465.50;4471894;32;20093;-81
2022/10/16 08:38:20;;;;;;;15.55;7.20;;;;;;;17.83;46.53;99467.22;4471528;32;20092;-77
2022/10/16 08:40:46;;;;;;;14.73;7.40;;;;;;;18.04;46.36;99464.78;4471766;32;20084;-79
2022/10/16 08:43:46;;;;;;;14.85;6.70;;;;;;;17.78;46.42;99466.69;4470456;32;20131;-80
2022/10/16 08:46:17;;;;;;;;;;;;;;;18.10;46.13;99463.50;4469768;32;20131;-80
2022/10/16 08:48:49;;;;;;;16.75;7.10;;;;;;;18.25;45.83;99467.66;4470528;32;20387;-81
2022/10/16 08:51:22;;;;;;;15.60;7.55;;;;;;;18.24;45.27;99467.78;4468646;32;20088;-80
2022/10/16 08:53:54;;;;;;;14.13;7.43;;;;;;;18.24;45.50;99465.13;4458344;32;20089;-81
2022/10/16 08:56:20;;;;;;;16.70;8.52;;;;;;;18.40;45.54;99462.97;4455051;32;20457;-82
2022/10/16 08:58:46;;;;;;;14.87;7.32;;;;;;;18.38;45.48;99474.72;4455584;32;20107;-82
2022/10/16 09:01:14;;;;;;;19.23;7.50;;;;;;;18.46;45.04;99475.84;4454665;32;20520;-83
2022/10/16 09:03:55;;;;;;;;;;;;;;;18.38;45.35;99469.41;4455244;32;20101;-82
2022/10/16 09:06:45;;;;;;;16.35;7.85;;;;;;;18.57;45.01;99472.34;4456236;32;19973;-83
2022/10/16 09:09:29;;;;;;;17.33;8.30;;;;;;;18.60;45.14;99469.47;4454775;32;20157;-82
2022/10/16 09:12:06;;;;;;;14.73;7.78;;;;;;;18.61;44.71;99470.31;4456280;32;20546;-85
2022/10/16 09:14:52;;;;;;;15.48;8.18;;;;;;;18.44;45.69;99479.59;4454983;32;20499;-83
2022/10/16 09:17:44;;;;;;;16.65;8.07;;;;;;;18.70;45.24;99485.63;4454925;32;20097;-80
2022/10/16 09:20:25;;;;;;;15.75;7.72;;;;;;;18.83;45.26;99482.84;4454797;32;20081;-81
2022/10/16 09:23:00;;;;;;;18.75;8.60;;;;;;;18.82;44.30;99474.00;4454969;32;20132;-79
2022/10/16 09:25:26;;;;;;;16.55;8.00;;;;;;;18.83;44.77;99480.19;4452894;32;20123;-81
2022/10/16 09:27:53;;;;;;;18.37;8.30;;;;;;;18.72;45.19;99472.16;4454312;32;20117;-80
2022/10/16 09:30:21;;;;;;;15.10;7.93;;;;;;;18.76;45.03;99476.28;4454148;32;20118;-85
2022/10/16 09:32:49;;;;;;;16.70;7.45;;;;;;;18.80;45.21;99480.44;4455490;32;20111;-78
2022/10/16 09:35:18;;;;;;;19.40;7.82;;;;;;;18.95;44.72;99473.03;4454438;32;20749;-81
2022/10/16 09:37:45;;;;;;;14.90;6.95;;;;;;;18.99;44.71;99470.03;4454698;32;20093;-81
2022/10/16 09:40:34;;;;;;;17.37;7.65;;;;;;;19.09;44.69;99475.50;4454661;32;20085;-81
2022/10/16 09:43:21;;;;;;;15.70;7.95;;;;;;;19.13;44.75;99476.94;4454558;32;20085;-81
2022/10/16 09:45:58;;;;;;;15.30;8.00;;;;;;;18.96;45.53;99482.75;4455856;32;20101;-82
2022/10/16 09:48:25;;;;;;;17.05;7.82;;;;;;;18.98;45.17;99486.16;4441365;32;20177;-80
2022/10/16 09:51:03;;;;;;;15.32;7.45;;;;;;;19.07;45.16;99473.91;4454652;32;20088;-80
2022/10/16 09:53:43;;;;;;;16.80;8.73;;;;;;;19.17;44.51;99482.91;4455772;32;20444;-82
2022/10/16 09:56:13;;;;;;;15.30;7.43;;;;;;;19.27;44.08;99481.19;4455719;32;20453;-79
2022/10/16 09:58:42;;;;;;;16.45;7.07;;;;;;;19.21;44.40;99487.88;4455853;32;20515;-82
2022/10/16 10:01:13;;;;;;;16.37;7.53;;;;;;;19.45;44.10;99494.88;4455667;32;20107;-82
2022/10/16 10:03:40;;;;;;;16.98;7.78;;;;;;;19.68;43.39;99493.03;4454805;32;20120;-88
2022/10/16 10:06:33;;;;;;;15.40;7.00;;;;;;;19.77;43.45;99494.16;4456594;32;20120;-84
2022/10/16 10:09:05;;;;;;;17.37;7.28;;;;;;;19.98;43.19;99496.91;4463950;32;20112;-84
2022/10/16 10:11:41;;;;;;;14.10;7.07;;;;;;;20.15;42.46;99492.84;4471077;32;20097;-84
2022/10/16 10:14:25;;;;;;;15.32;7.47;;;;;;;20.31;42.21;99476.34;4471123;32;20169;-85
2022/10/16 10:16:53;;;;;;;14.15;7.25;;;;;;;20.31;42.15;99484.38;4471085;32;20103;-85
2022/10/16 10:19:21;;;;;;;15.93;7.65;;;;;;;20.22;42.38;99468.13;4469923;32;20124;-85
2022/10/16 10:21:46;;;;;;;13.60;7.00;;;;;;;20.21;42.33;99470.91;4470962;32;20161;-85
2022/10/16 10:24:13;;;;;;;15.80;7.45;;;;;;;19.93;43.43;99478.53;4470899;32;20096;-87
2022/10/16 10:26:44;;;;;;;14.23;6.72;;;;;;;20.07;43.21;99481.91;4470845;32;20139;-85
2022/10/16 10:29:47;;;;;;;12.82;6.72;;;;;;;20.22;42.88;99476.13;4469794;32;20511;-84
2022/10/16 10:32:23;;;;;;;14.32;7.28;;;;;;;20.24;42.74;99470.62;4469804;32;20096;-86
2022/10/16 10:35:13;;;;;;;15.68;7.45;;;;;;;20.25;42.70;99461.66;4469954;32;20389;-84
2022/10/16 10:37:57;;;;;;;14.23;6.72;;;;;;;20.13;43.15;99465.38;4469744;32;20164;-85
2022/10/16 10:40:30;;;;;;;14.32;6.97;;;;;;;20.16;42.90;99465.09;4469575;32;20460;-85
2022/10/16 10:42:58;;;;;;;17.02;6.43;;;;;;;20.17;42.69;99474.81;4469586;32;20092;-85
2022/10/16 10:45:29;;;;;;;15.35;7.12;;;;;;;20.17;42.99;99472.16;4470765;32;20483;-85
2022/10/16 10:48:13;;;;;;;13.55;6.53;;;;;;;20.03;43.55;99473.31;4469251;32;20093;-85
2022/10/16 10:50:45;;;;;;;14.75;6.87;;;;;;;20.04;43.53;99470.47;4470704;32;20115;-84
2022/10/16 10:53:29;;;;;;;15.38;7.07;;;;;;;20.05;43.66;99466.00;4469469;32;20590;-92
2022/10/16 10:56:01;;;;;;;14.82;7.15;;;;;;;20.11;43.79;99472.63;4470741;32;20080;-93
2022/10/16 10:58:39;;;;;;;14.73;6.87;;;;;;;20.12;43.49;99475.19;4471023;32;20080;-83
2022/10/16 11:01:18;;;;;;;14.15;6.85;;;;;;;20.09;43.74;99472.78;4469346;32;20112;-83
2022/10/16 11:03:53;;;;;;;15.68;7.00;;;;;;;20.14;43.24;99473.22;4469307;32;20080;-83
2022/10/16 11:06:52;;;;;;;13.20;6.62;;;;;;;20.16;43.16;99478.47;4470259;32;20104;-83
2022/10/16 11:09:25;;;;;;;13.38;6.40;;;;;;;20.19;43.40;99468.37;4469123;32;20097;-85
2022/10/16 11:12:05;;;;;;;13.10;6.47;;;;;;;20.26;42.94;99470.50;4470235;32;20093;-82
2022/10/16 11:14:45;;;;;;;13.05;6.00;;;;;;;20.04;43.48;99473.16;4469073;32;20452;-88
2022/10/16 11:17:14;;;;;;;11.88;5.70;;;;;;;20.23;42.96;99458.25;4467573;32;20093;-87
2022/10/16 11:19:53;;;;;;;12.90;6.10;;;;;;;20.01;43.64;99461.84;4455535;32;20124;-84
2022/10/16 11:22:36;;;;;;;12.93;5.30;;;;;;;20.29;42.91;99457.72;4455220;32;20089;-88
2022/10/16 11:25:23;;;;;;;11.98;5.30;;;;;;;20.35;42.61;99456.38;4455402;32;20474;-81
2022/10/16 11:28:10;;;;;;;11.50;5.57;;;;;;;20.38;42.42;99456.12;4456406;32;20119;-85
2022/10/16 11:30:44;;;;;;;13.40;5.47;;;;;;;20.38;42.50;99454.28;4457080;32;20082;-85
2022/10/16 11:33:24;;;;;;;14.13;5.35;;;;;;;20.30;42.03;99454.09;4456759;32;20142;-81
2022/10/16 11:35:53;;;;;;;12.65;5.50;;;;;;;20.13;43.18;99450.16;4455575;32;20558;-81